sensor_id;sensor_type;location;lat;lon;timestamp;P1;durP1;ratioP1;P2;durP2;ratioP2
41715;SDS011;27402;47.650;-2.092;2022-07-04T00:00:14;1.27;;;0.50;;
41715;SDS011;27402;47.650;-2.092;2022-07-04T00:02:40;4.05;;;0.70;;
41715;SDS011;27402;47.650;-2.092;2022-07-04T00:05:08;0.73;;;0.40;;
41715;SDS011;27402;47.650;-2.092;2022-07-04T00:07:42;0.85;;;0.40;;
41715;SDS011;27402;47.650;-2.092;2022-07-04T00:10:09;3.85;;;0.60;;
41715;SDS011;27402;47.650;-2.092;2022-07-04T00:12:35;1.92;;;0.40;;
41715;SDS011;27402;47.650;-2.092;2022-07-04T00:15:02;1.42;;;0.40;;
41715;SDS011;27402;47.650;-2.092;2022-07-04T00:17:29;0.93;;;0.35;;
41715;SDS011;27402;47.650;-2.092;2022-07-04T00:19:55;0.77;;;0.35;;
41715;SDS011;27402;47.650;-2.092;2022-07-04T00:22:21;2.03;;;0.40;;
41715;SDS011;27402;47.650;-2.092;2022-07-04T00:24:47;0.52;;;0.30;;
41715;SDS011;27402;47.650;-2.092;2022-07-04T00:27:13;3.55;;;0.50;;
41715;SDS011;27402;47.650;-2.092;2022-07-04T00:29:39;1.17;;;0.80;;
41715;SDS011;27402;47.650;-2.092;2022-07-04T00:32:06;1.48;;;0.45;;
41715;SDS011;27402;47.650;-2.092;2022-07-04T00:34:32;3.08;;;0.50;;
41715;SDS011;27402;47.650;-2.092;2022-07-04T00:36:58;3.55;;;0.60;;
41715;SDS011;27402;47.650;-2.092;2022-07-04T00:39:24;1.05;;;0.38;;
41715;SDS011;27402;47.650;-2.092;2022-07-04T00:41:50;1.70;;;0.60;;
41715;SDS011;27402;47.650;-2.092;2022-07-04T00:44:16;2.55;;;0.40;;
41715;SDS011;27402;47.650;-2.092;2022-07-04T00:46:43;2.15;;;0.60;;
41715;SDS011;27402;47.650;-2.092;2022-07-04T00:49:09;0.77;;;0.50;;
41715;SDS011;27402;47.650;-2.092;2022-07-04T00:51:39;2.88;;;0.65;;
41715;SDS011;27402;47.650;-2.092;2022-07-04T00:54:06;1.77;;;0.50;;
41715;SDS011;27402;47.650;-2.092;2022-07-04T00:56:34;1.38;;;0.63;;
41715;SDS011;27402;47.650;-2.092;2022-07-04T00:59:00;3.13;;;1.02;;
41715;SDS011;27402;47.650;-2.092;2022-07-04T01:01:27;1.50;;;0.50;;
41715;SDS011;27402;47.650;-2.092;2022-07-04T01:03:53;3.58;;;0.40;;
41715;SDS011;27402;47.650;-2.092;2022-07-04T01:06:19;1.38;;;0.90;;
41715;SDS011;27402;47.650;-2.092;2022-07-04T01:08:45;2.47;;;0.70;;
41715;SDS011;27402;47.650;-2.092;2022-07-04T01:11:11;0.77;;;0.40;;
41715;SDS011;27402;47.650;-2.092;2022-07-04T01:13:38;1.58;;;0.50;;
41715;SDS011;27402;47.650;-2.092;2022-07-04T01:16:08;1.58;;;0.63;;
41715;SDS011;27402;47.650;-2.092;2022-07-04T01:18:34;3.63;;;1.15;;
41715;SDS011;27402;47.650;-2.092;2022-07-04T01:21:00;1.88;;;0.63;;
41715;SDS011;27402;47.650;-2.092;2022-07-04T01:23:26;3.42;;;0.60;;
41715;SDS011;27402;47.650;-2.092;2022-07-04T01:25:52;2.17;;;0.57;;
41715;SDS011;27402;47.650;-2.092;2022-07-04T01:28:19;2.35;;;0.65;;
41715;SDS011;27402;47.650;-2.092;2022-07-04T01:30:46;1.20;;;0.35;;
41715;SDS011;27402;47.650;-2.092;2022-07-04T01:33:12;2.00;;;0.50;;
41715;SDS011;27402;47.650;-2.092;2022-07-04T01:35:38;1.63;;;0.40;;
41715;SDS011;27402;47.650;-2.092;2022-07-04T01:38:04;1.40;;;0.73;;
41715;SDS011;27402;47.650;-2.092;2022-07-04T01:40:30;1.50;;;0.52;;
41715;SDS011;27402;47.650;-2.092;2022-07-04T01:42:56;2.00;;;0.47;;
41715;SDS011;27402;47.650;-2.092;2022-07-04T01:45:25;1.25;;;0.50;;
41715;SDS011;27402;47.650;-2.092;2022-07-04T01:47:51;2.05;;;0.60;;
41715;SDS011;27402;47.650;-2.092;2022-07-04T01:50:18;1.77;;;0.50;;
41715;SDS011;27402;47.650;-2.092;2022-07-04T01:52:44;3.72;;;0.60;;
41715;SDS011;27402;47.650;-2.092;2022-07-04T01:55:10;4.20;;;1.30;;
41715;SDS011;27402;47.650;-2.092;2022-07-04T01:57:37;1.60;;;0.40;;
41715;SDS011;27402;47.650;-2.092;2022-07-04T02:00:07;1.63;;;0.40;;
41715;SDS011;27402;47.650;-2.092;2022-07-04T02:02:53;1.38;;;0.50;;
41715;SDS011;27402;47.650;-2.092;2022-07-04T02:05:19;2.72;;;0.70;;
41715;SDS011;27402;47.650;-2.092;2022-07-04T02:07:45;1.08;;;0.40;;
41715;SDS011;27402;47.650;-2.092;2022-07-04T02:10:11;2.70;;;0.45;;
41715;SDS011;27402;47.650;-2.092;2022-07-04T02:12:37;1.10;;;0.60;;
41715;SDS011;27402;47.650;-2.092;2022-07-04T02:15:22;1.13;;;0.52;;
41715;SDS011;27402;47.650;-2.092;2022-07-04T02:17:48;1.85;;;0.73;;
41715;SDS011;27402;47.650;-2.092;2022-07-04T02:20:14;1.05;;;0.88;;
41715;SDS011;27402;47.650;-2.092;2022-07-04T02:22:40;2.35;;;0.50;;
41715;SDS011;27402;47.650;-2.092;2022-07-04T02:25:06;1.52;;;0.47;;
41715;SDS011;27402;47.650;-2.092;2022-07-04T02:27:32;3.08;;;0.88;;
41715;SDS011;27402;47.650;-2.092;2022-07-04T02:29:58;1.77;;;0.47;;
41715;SDS011;27402;47.650;-2.092;2022-07-04T02:32:24;1.38;;;0.50;;
41715;SDS011;27402;47.650;-2.092;2022-07-04T02:34:50;2.63;;;0.60;;
41715;SDS011;27402;47.650;-2.092;2022-07-04T02:37:16;2.63;;;0.57;;
41715;SDS011;27402;47.650;-2.092;2022-07-04T02:39:43;1.00;;;0.60;;
41715;SDS011;27402;47.650;-2.092;2022-07-04T02:42:09;1.08;;;0.43;;
41715;SDS011;27402;47.650;-2.092;2022-07-04T02:44:35;0.65;;;0.50;;
41715;SDS011;27402;47.650;-2.092;2022-07-04T02:47:01;2.53;;;0.45;;
41715;SDS011;27402;47.650;-2.092;2022-07-04T02:49:27;1.48;;;0.50;;
41715;SDS011;27402;47.650;-2.092;2022-07-04T02:51:53;2.65;;;0.57;;
41715;SDS011;27402;47.650;-2.092;2022-07-04T02:54:19;2.65;;;0.60;;
41715;SDS011;27402;47.650;-2.092;2022-07-04T02:56:45;0.85;;;0.40;;
41715;SDS011;27402;47.650;-2.092;2022-07-04T02:59:11;0.70;;;0.50;;
41715;SDS011;27402;47.650;-2.092;2022-07-04T03:01:37;2.83;;;0.80;;
41715;SDS011;27402;47.650;-2.092;2022-07-04T03:04:03;1.45;;;0.55;;
41715;SDS011;27402;47.650;-2.092;2022-07-04T03:06:29;1.98;;;0.60;;
41715;SDS011;27402;47.650;-2.092;2022-07-04T03:08:56;2.17;;;0.73;;
41715;SDS011;27402;47.650;-2.092;2022-07-04T03:11:22;2.35;;;0.70;;
41715;SDS011;27402;47.650;-2.092;2022-07-04T03:13:48;2.70;;;0.70;;
41715;SDS011;27402;47.650;-2.092;2022-07-04T03:16:14;2.08;;;0.70;;
41715;SDS011;27402;47.650;-2.092;2022-07-04T03:18:40;1.55;;;0.63;;
41715;SDS011;27402;47.650;-2.092;2022-07-04T03:21:06;1.85;;;0.55;;
41715;SDS011;27402;47.650;-2.092;2022-07-04T03:23:32;1.52;;;0.40;;
41715;SDS011;27402;47.650;-2.092;2022-07-04T03:25:59;0.70;;;0.38;;
41715;SDS011;27402;47.650;-2.092;2022-07-04T03:28:25;1.33;;;0.80;;
41715;SDS011;27402;47.650;-2.092;2022-07-04T03:30:51;1.70;;;0.70;;
41715;SDS011;27402;47.650;-2.092;2022-07-04T03:33:18;0.55;;;0.38;;
41715;SDS011;27402;47.650;-2.092;2022-07-04T03:35:44;2.55;;;0.50;;
41715;SDS011;27402;47.650;-2.092;2022-07-04T03:38:11;1.98;;;0.70;;
41715;SDS011;27402;47.650;-2.092;2022-07-04T03:40:37;1.33;;;0.50;;
41715;SDS011;27402;47.650;-2.092;2022-07-04T03:43:03;1.80;;;0.68;;
41715;SDS011;27402;47.650;-2.092;2022-07-04T03:45:31;3.10;;;0.40;;
41715;SDS011;27402;47.650;-2.092;2022-07-04T03:47:57;2.85;;;0.85;;
41715;SDS011;27402;47.650;-2.092;2022-07-04T03:50:23;3.03;;;0.50;;
41715;SDS011;27402;47.650;-2.092;2022-07-04T03:52:49;1.95;;;0.50;;
41715;SDS011;27402;47.650;-2.092;2022-07-04T03:55:15;1.23;;;0.40;;
41715;SDS011;27402;47.650;-2.092;2022-07-04T03:57:41;2.70;;;0.60;;
41715;SDS011;27402;47.650;-2.092;2022-07-04T04:00:08;1.20;;;0.55;;
41715;SDS011;27402;47.650;-2.092;2022-07-04T04:02:35;1.58;;;0.55;;
41715;SDS011;27402;47.650;-2.092;2022-07-04T04:05:01;1.30;;;0.52;;
41715;SDS011;27402;47.650;-2.092;2022-07-04T04:07:46;0.50;;;0.50;;
41715;SDS011;27402;47.650;-2.092;2022-07-04T04:10:12;0.93;;;0.73;;
41715;SDS011;27402;47.650;-2.092;2022-07-04T04:12:38;3.67;;;0.65;;
41715;SDS011;27402;47.650;-2.092;2022-07-04T04:15:04;1.05;;;0.63;;
41715;SDS011;27402;47.650;-2.092;2022-07-04T04:17:30;2.40;;;1.10;;
41715;SDS011;27402;47.650;-2.092;2022-07-04T04:19:56;1.48;;;0.52;;
41715;SDS011;27402;47.650;-2.092;2022-07-04T04:22:22;1.85;;;0.47;;
41715;SDS011;27402;47.650;-2.092;2022-07-04T04:24:48;1.70;;;0.52;;
41715;SDS011;27402;47.650;-2.092;2022-07-04T04:27:14;0.90;;;0.52;;
41715;SDS011;27402;47.650;-2.092;2022-07-04T04:29:41;0.65;;;0.40;;
41715;SDS011;27402;47.650;-2.092;2022-07-04T04:32:07;2.00;;;0.60;;
41715;SDS011;27402;47.650;-2.092;2022-07-04T04:34:33;2.00;;;0.35;;
41715;SDS011;27402;47.650;-2.092;2022-07-04T04:36:59;1.48;;;0.50;;
41715;SDS011;27402;47.650;-2.092;2022-07-04T04:39:25;1.65;;;0.50;;
41715;SDS011;27402;47.650;-2.092;2022-07-04T04:41:51;0.95;;;0.52;;
41715;SDS011;27402;47.650;-2.092;2022-07-04T04:44:18;1.60;;;0.63;;
41715;SDS011;27402;47.650;-2.092;2022-07-04T04:46:44;0.82;;;0.52;;
41715;SDS011;27402;47.650;-2.092;2022-07-04T04:49:10;1.20;;;0.50;;
41715;SDS011;27402;47.650;-2.092;2022-07-04T04:51:36;1.13;;;0.60;;
41715;SDS011;27402;47.650;-2.092;2022-07-04T04:54:03;1.85;;;0.52;;
41715;SDS011;27402;47.650;-2.092;2022-07-04T04:56:29;2.05;;;0.60;;
41715;SDS011;27402;47.650;-2.092;2022-07-04T04:58:55;0.90;;;0.70;;
41715;SDS011;27402;47.650;-2.092;2022-07-04T05:01:21;0.80;;;0.60;;
41715;SDS011;27402;47.650;-2.092;2022-07-04T05:03:48;1.85;;;0.50;;
41715;SDS011;27402;47.650;-2.092;2022-07-04T05:06:14;2.70;;;0.70;;
41715;SDS011;27402;47.650;-2.092;2022-07-04T05:08:40;1.98;;;0.65;;
41715;SDS011;27402;47.650;-2.092;2022-07-04T05:11:06;1.38;;;0.60;;
41715;SDS011;27402;47.650;-2.092;2022-07-04T05:13:32;2.00;;;0.50;;
41715;SDS011;27402;47.650;-2.092;2022-07-04T05:15:58;1.35;;;0.47;;
41715;SDS011;27402;47.650;-2.092;2022-07-04T05:18:24;1.92;;;0.57;;
41715;SDS011;27402;47.650;-2.092;2022-07-04T05:20:50;1.50;;;0.50;;
41715;SDS011;27402;47.650;-2.092;2022-07-04T05:23:16;3.25;;;0.80;;
41715;SDS011;27402;47.650;-2.092;2022-07-04T05:25:42;1.70;;;0.52;;
41715;SDS011;27402;47.650;-2.092;2022-07-04T05:28:08;0.98;;;0.57;;
41715;SDS011;27402;47.650;-2.092;2022-07-04T05:30:34;0.90;;;0.40;;
41715;SDS011;27402;47.650;-2.092;2022-07-04T05:33:00;2.25;;;0.80;;
41715;SDS011;27402;47.650;-2.092;2022-07-04T05:35:27;3.45;;;0.57;;
41715;SDS011;27402;47.650;-2.092;2022-07-04T05:37:54;1.40;;;0.68;;
41715;SDS011;27402;47.650;-2.092;2022-07-04T05:40:20;0.73;;;0.52;;
41715;SDS011;27402;47.650;-2.092;2022-07-04T05:42:46;3.75;;;0.75;;
41715;SDS011;27402;47.650;-2.092;2022-07-04T05:45:13;0.73;;;0.40;;
41715;SDS011;27402;47.650;-2.092;2022-07-04T05:47:40;2.25;;;0.70;;
41715;SDS011;27402;47.650;-2.092;2022-07-04T05:50:06;1.83;;;0.80;;
41715;SDS011;27402;47.650;-2.092;2022-07-04T05:52:33;1.00;;;0.70;;
41715;SDS011;27402;47.650;-2.092;2022-07-04T05:54:59;2.78;;;1.23;;
41715;SDS011;27402;47.650;-2.092;2022-07-04T05:57:25;1.10;;;0.60;;
41715;SDS011;27402;47.650;-2.092;2022-07-04T05:59:51;2.50;;;1.08;;
41715;SDS011;27402;47.650;-2.092;2022-07-04T06:02:17;1.95;;;0.95;;
41715;SDS011;27402;47.650;-2.092;2022-07-04T06:04:43;1.17;;;0.77;;
41715;SDS011;27402;47.650;-2.092;2022-07-04T06:07:09;4.00;;;0.88;;
41715;SDS011;27402;47.650;-2.092;2022-07-04T06:09:35;3.90;;;1.10;;
41715;SDS011;27402;47.650;-2.092;2022-07-04T06:12:02;3.40;;;0.90;;
41715;SDS011;27402;47.650;-2.092;2022-07-04T06:14:29;4.53;;;1.20;;
41715;SDS011;27402;47.650;-2.092;2022-07-04T06:16:55;2.60;;;0.90;;
41715;SDS011;27402;47.650;-2.092;2022-07-04T06:19:21;2.17;;;0.60;;
41715;SDS011;27402;47.650;-2.092;2022-07-04T06:21:47;0.88;;;0.63;;
41715;SDS011;27402;47.650;-2.092;2022-07-04T06:24:13;3.47;;;0.90;;
41715;SDS011;27402;47.650;-2.092;2022-07-04T06:26:39;4.43;;;0.90;;
41715;SDS011;27402;47.650;-2.092;2022-07-04T06:29:05;4.20;;;0.70;;
41715;SDS011;27402;47.650;-2.092;2022-07-04T06:31:31;1.55;;;0.90;;
41715;SDS011;27402;47.650;-2.092;2022-07-04T06:33:57;7.93;;;0.90;;
41715;SDS011;27402;47.650;-2.092;2022-07-04T06:36:42;1.13;;;0.80;;
41715;SDS011;27402;47.650;-2.092;2022-07-04T06:39:09;3.67;;;0.70;;
41715;SDS011;27402;47.650;-2.092;2022-07-04T06:41:35;1.65;;;0.60;;
41715;SDS011;27402;47.650;-2.092;2022-07-04T06:44:02;1.15;;;0.70;;
41715;SDS011;27402;47.650;-2.092;2022-07-04T06:46:28;3.08;;;0.50;;
41715;SDS011;27402;47.650;-2.092;2022-07-04T06:48:55;2.13;;;0.60;;
41715;SDS011;27402;47.650;-2.092;2022-07-04T06:51:21;1.95;;;0.85;;
41715;SDS011;27402;47.650;-2.092;2022-07-04T06:53:47;0.88;;;0.50;;
41715;SDS011;27402;47.650;-2.092;2022-07-04T06:56:14;2.58;;;0.70;;
41715;SDS011;27402;47.650;-2.092;2022-07-04T06:58:40;1.50;;;0.60;;
41715;SDS011;27402;47.650;-2.092;2022-07-04T07:01:06;1.90;;;0.50;;
41715;SDS011;27402;47.650;-2.092;2022-07-04T07:03:32;3.08;;;0.85;;
41715;SDS011;27402;47.650;-2.092;2022-07-04T07:05:58;0.98;;;0.60;;
41715;SDS011;27402;47.650;-2.092;2022-07-04T07:08:24;1.48;;;0.60;;
41715;SDS011;27402;47.650;-2.092;2022-07-04T07:10:51;1.40;;;0.80;;
41715;SDS011;27402;47.650;-2.092;2022-07-04T07:13:17;1.77;;;1.13;;
41715;SDS011;27402;47.650;-2.092;2022-07-04T07:15:43;1.45;;;0.70;;
41715;SDS011;27402;47.650;-2.092;2022-07-04T07:18:09;1.45;;;0.50;;
41715;SDS011;27402;47.650;-2.092;2022-07-04T07:20:36;0.88;;;0.50;;
41715;SDS011;27402;47.650;-2.092;2022-07-04T07:23:05;1.95;;;0.40;;
41715;SDS011;27402;47.650;-2.092;2022-07-04T07:25:31;2.13;;;0.75;;
41715;SDS011;27402;47.650;-2.092;2022-07-04T07:27:57;1.52;;;0.50;;
41715;SDS011;27402;47.650;-2.092;2022-07-04T07:30:24;2.78;;;1.10;;
41715;SDS011;27402;47.650;-2.092;2022-07-04T07:32:50;0.88;;;0.30;;
41715;SDS011;27402;47.650;-2.092;2022-07-04T07:35:16;1.67;;;0.55;;
41715;SDS011;27402;47.650;-2.092;2022-07-04T07:37:42;3.17;;;0.73;;
41715;SDS011;27402;47.650;-2.092;2022-07-04T07:40:08;1.02;;;0.50;;
41715;SDS011;27402;47.650;-2.092;2022-07-04T07:42:35;1.15;;;0.47;;
41715;SDS011;27402;47.650;-2.092;2022-07-04T07:45:01;1.92;;;0.90;;
41715;SDS011;27402;47.650;-2.092;2022-07-04T07:47:27;1.25;;;0.65;;
41715;SDS011;27402;47.650;-2.092;2022-07-04T07:49:53;1.10;;;0.45;;
41715;SDS011;27402;47.650;-2.092;2022-07-04T07:52:20;1.88;;;0.50;;
41715;SDS011;27402;47.650;-2.092;2022-07-04T07:54:46;2.58;;;0.60;;
41715;SDS011;27402;47.650;-2.092;2022-07-04T07:57:12;1.77;;;0.50;;
41715;SDS011;27402;47.650;-2.092;2022-07-04T07:59:38;0.90;;;0.30;;
41715;SDS011;27402;47.650;-2.092;2022-07-04T08:02:04;1.42;;;0.50;;
41715;SDS011;27402;47.650;-2.092;2022-07-04T08:04:30;1.60;;;0.47;;
41715;SDS011;27402;47.650;-2.092;2022-07-04T08:07:00;0.95;;;0.43;;
41715;SDS011;27402;47.650;-2.092;2022-07-04T08:09:26;1.40;;;0.50;;
41715;SDS011;27402;47.650;-2.092;2022-07-04T08:11:52;1.95;;;0.50;;
41715;SDS011;27402;47.650;-2.092;2022-07-04T08:14:18;2.38;;;0.55;;
41715;SDS011;27402;47.650;-2.092;2022-07-04T08:16:44;2.15;;;0.60;;
41715;SDS011;27402;47.650;-2.092;2022-07-04T08:19:10;2.30;;;0.50;;
41715;SDS011;27402;47.650;-2.092;2022-07-04T08:21:36;0.93;;;0.35;;
41715;SDS011;27402;47.650;-2.092;2022-07-04T08:24:03;0.77;;;0.30;;
41715;SDS011;27402;47.650;-2.092;2022-07-04T08:26:29;0.88;;;0.50;;
41715;SDS011;27402;47.650;-2.092;2022-07-04T08:28:55;1.38;;;0.40;;
41715;SDS011;27402;47.650;-2.092;2022-07-04T08:31:22;0.73;;;0.30;;
41715;SDS011;27402;47.650;-2.092;2022-07-04T08:33:49;0.45;;;0.25;;
41715;SDS011;27402;47.650;-2.092;2022-07-04T08:36:15;1.92;;;0.47;;
41715;SDS011;27402;47.650;-2.092;2022-07-04T08:38:41;1.02;;;0.52;;
41715;SDS011;27402;47.650;-2.092;2022-07-04T08:41:08;1.50;;;0.38;;
41715;SDS011;27402;47.650;-2.092;2022-07-04T08:43:34;3.72;;;0.95;;
41715;SDS011;27402;47.650;-2.092;2022-07-04T08:46:04;2.00;;;0.50;;
41715;SDS011;27402;47.650;-2.092;2022-07-04T08:48:31;1.00;;;0.32;;
41715;SDS011;27402;47.650;-2.092;2022-07-04T08:51:17;2.00;;;0.57;;
41715;SDS011;27402;47.650;-2.092;2022-07-04T08:53:52;2.42;;;1.02;;
41715;SDS011;27402;47.650;-2.092;2022-07-04T08:56:20;2.80;;;0.40;;
41715;SDS011;27402;47.650;-2.092;2022-07-04T08:59:05;2.08;;;0.80;;
41715;SDS011;27402;47.650;-2.092;2022-07-04T09:01:31;0.98;;;0.50;;
41715;SDS011;27402;47.650;-2.092;2022-07-04T09:03:58;1.77;;;0.60;;
41715;SDS011;27402;47.650;-2.092;2022-07-04T09:06:25;2.42;;;0.40;;
41715;SDS011;27402;47.650;-2.092;2022-07-04T09:08:52;2.58;;;0.47;;
41715;SDS011;27402;47.650;-2.092;2022-07-04T09:11:19;1.08;;;0.50;;
41715;SDS011;27402;47.650;-2.092;2022-07-04T09:13:45;1.30;;;0.50;;
41715;SDS011;27402;47.650;-2.092;2022-07-04T09:16:12;1.35;;;0.60;;
41715;SDS011;27402;47.650;-2.092;2022-07-04T09:18:38;1.67;;;0.55;;
41715;SDS011;27402;47.650;-2.092;2022-07-04T09:21:05;3.08;;;0.70;;
41715;SDS011;27402;47.650;-2.092;2022-07-04T09:23:36;2.17;;;0.43;;
41715;SDS011;27402;47.650;-2.092;2022-07-04T09:28:40;2.05;;;0.40;;
41715;SDS011;27402;47.650;-2.092;2022-07-04T09:31:20;1.52;;;0.50;;
41715;SDS011;27402;47.650;-2.092;2022-07-04T09:33:51;3.42;;;0.65;;
41715;SDS011;27402;47.650;-2.092;2022-07-04T09:36:18;1.25;;;0.40;;
41715;SDS011;27402;47.650;-2.092;2022-07-04T09:38:46;2.15;;;0.40;;
41715;SDS011;27402;47.650;-2.092;2022-07-04T09:41:29;1.58;;;0.40;;
41715;SDS011;27402;47.650;-2.092;2022-07-04T09:44:03;3.38;;;1.10;;
41715;SDS011;27402;47.650;-2.092;2022-07-04T09:46:30;2.33;;;0.40;;
41715;SDS011;27402;47.650;-2.092;2022-07-04T09:48:56;2.30;;;0.43;;
41715;SDS011;27402;47.650;-2.092;2022-07-04T09:51:35;5.15;;;0.63;;
41715;SDS011;27402;47.650;-2.092;2022-07-04T09:54:15;1.40;;;0.50;;
41715;SDS011;27402;47.650;-2.092;2022-07-04T09:56:41;0.77;;;0.43;;
41715;SDS011;27402;47.650;-2.092;2022-07-04T09:59:08;3.15;;;0.50;;
41715;SDS011;27402;47.650;-2.092;2022-07-04T10:01:34;1.90;;;0.52;;
41715;SDS011;27402;47.650;-2.092;2022-07-04T10:04:01;3.83;;;0.50;;
41715;SDS011;27402;47.650;-2.092;2022-07-04T10:06:30;2.97;;;0.40;;
41715;SDS011;27402;47.650;-2.092;2022-07-04T10:09:04;1.88;;;0.50;;
41715;SDS011;27402;47.650;-2.092;2022-07-04T10:11:34;2.72;;;0.47;;
41715;SDS011;27402;47.650;-2.092;2022-07-04T10:14:01;1.77;;;0.47;;
41715;SDS011;27402;47.650;-2.092;2022-07-04T10:16:28;1.80;;;0.40;;
41715;SDS011;27402;47.650;-2.092;2022-07-04T10:18:55;3.05;;;1.30;;
41715;SDS011;27402;47.650;-2.092;2022-07-04T10:21:22;9.70;;;5.68;;
41715;SDS011;27402;47.650;-2.092;2022-07-04T10:23:49;22.15;;;13.35;;
41715;SDS011;27402;47.650;-2.092;2022-07-04T10:26:19;23.40;;;14.60;;
41715;SDS011;27402;47.650;-2.092;2022-07-04T10:28:45;21.55;;;12.48;;
41715;SDS011;27402;47.650;-2.092;2022-07-04T10:31:14;22.65;;;13.55;;
41715;SDS011;27402;47.650;-2.092;2022-07-04T10:33:41;18.20;;;10.43;;
41715;SDS011;27402;47.650;-2.092;2022-07-04T10:36:18;14.80;;;9.38;;
41715;SDS011;27402;47.650;-2.092;2022-07-04T10:41:14;12.80;;;7.90;;
41715;SDS011;27402;47.650;-2.092;2022-07-04T10:43:56;12.23;;;7.60;;
41715;SDS011;27402;47.650;-2.092;2022-07-04T10:46:26;11.73;;;7.68;;
41715;SDS011;27402;47.650;-2.092;2022-07-04T10:48:54;11.57;;;7.35;;
41715;SDS011;27402;47.650;-2.092;2022-07-04T10:54:03;10.15;;;6.43;;
41715;SDS011;27402;47.650;-2.092;2022-07-04T10:56:31;10.07;;;6.13;;
41715;SDS011;27402;47.650;-2.092;2022-07-04T10:59:00;13.07;;;5.78;;
41715;SDS011;27402;47.650;-2.092;2022-07-04T11:01:28;9.48;;;5.22;;
41715;SDS011;27402;47.650;-2.092;2022-07-04T11:03:54;10.02;;;5.80;;
41715;SDS011;27402;47.650;-2.092;2022-07-04T11:07:03;7.93;;;4.72;;
41715;SDS011;27402;47.650;-2.092;2022-07-04T11:17:03;7.60;;;4.00;;
41715;SDS011;27402;47.650;-2.092;2022-07-04T11:19:29;6.95;;;3.47;;
41715;SDS011;27402;47.650;-2.092;2022-07-04T11:21:55;7.28;;;4.13;;
41715;SDS011;27402;47.650;-2.092;2022-07-04T11:24:22;7.25;;;3.85;;
41715;SDS011;27402;47.650;-2.092;2022-07-04T11:26:48;5.55;;;3.40;;
41715;SDS011;27402;47.650;-2.092;2022-07-04T11:29:14;6.72;;;3.72;;
41715;SDS011;27402;47.650;-2.092;2022-07-04T11:31:41;5.78;;;2.80;;
41715;SDS011;27402;47.650;-2.092;2022-07-04T11:34:08;6.32;;;2.83;;
41715;SDS011;27402;47.650;-2.092;2022-07-04T11:36:34;5.35;;;2.58;;
41715;SDS011;27402;47.650;-2.092;2022-07-04T11:39:07;6.72;;;2.67;;
41715;SDS011;27402;47.650;-2.092;2022-07-04T11:41:35;5.25;;;2.20;;
41715;SDS011;27402;47.650;-2.092;2022-07-04T11:44:24;5.55;;;2.33;;
41715;SDS011;27402;47.650;-2.092;2022-07-04T11:49:37;2.88;;;1.52;;
41715;SDS011;27402;47.650;-2.092;2022-07-04T11:52:06;5.18;;;1.88;;
41715;SDS011;27402;47.650;-2.092;2022-07-04T11:54:32;4.00;;;1.70;;
41715;SDS011;27402;47.650;-2.092;2022-07-04T11:57:08;5.05;;;1.35;;
41715;SDS011;27402;47.650;-2.092;2022-07-04T11:59:34;3.60;;;1.58;;
41715;SDS011;27402;47.650;-2.092;2022-07-04T12:02:14;4.85;;;1.20;;
41715;SDS011;27402;47.650;-2.092;2022-07-04T12:04:40;3.90;;;1.50;;
41715;SDS011;27402;47.650;-2.092;2022-07-04T12:07:14;2.63;;;1.25;;
41715;SDS011;27402;47.650;-2.092;2022-07-04T12:09:40;2.25;;;1.45;;
41715;SDS011;27402;47.650;-2.092;2022-07-04T12:12:07;4.15;;;1.17;;
41715;SDS011;27402;47.650;-2.092;2022-07-04T12:14:33;2.13;;;0.90;;
41715;SDS011;27402;47.650;-2.092;2022-07-04T12:17:12;2.85;;;1.42;;
41715;SDS011;27402;47.650;-2.092;2022-07-04T12:19:52;1.63;;;0.68;;
41715;SDS011;27402;47.650;-2.092;2022-07-04T12:24:50;1.60;;;0.93;;
41715;SDS011;27402;47.650;-2.092;2022-07-04T12:27:17;3.35;;;0.98;;
41715;SDS011;27402;47.650;-2.092;2022-07-04T12:29:50;2.90;;;1.02;;
41715;SDS011;27402;47.650;-2.092;2022-07-04T12:34:43;1.55;;;0.60;;
41715;SDS011;27402;47.650;-2.092;2022-07-04T12:37:09;2.58;;;0.80;;
41715;SDS011;27402;47.650;-2.092;2022-07-04T12:39:37;2.28;;;0.85;;
41715;SDS011;27402;47.650;-2.092;2022-07-04T12:42:08;4.18;;;1.10;;
41715;SDS011;27402;47.650;-2.092;2022-07-04T12:44:35;2.83;;;1.00;;
41715;SDS011;27402;47.650;-2.092;2022-07-04T12:47:02;2.22;;;0.68;;
41715;SDS011;27402;47.650;-2.092;2022-07-04T12:49:28;1.90;;;0.70;;
41715;SDS011;27402;47.650;-2.092;2022-07-04T12:52:08;1.80;;;0.73;;
41715;SDS011;27402;47.650;-2.092;2022-07-04T12:54:34;1.08;;;0.60;;
41715;SDS011;27402;47.650;-2.092;2022-07-04T12:57:08;2.17;;;0.55;;
41715;SDS011;27402;47.650;-2.092;2022-07-04T12:59:35;2.15;;;0.80;;
41715;SDS011;27402;47.650;-2.092;2022-07-04T13:02:01;1.40;;;0.60;;
41715;SDS011;27402;47.650;-2.092;2022-07-04T13:04:27;2.08;;;0.90;;
41715;SDS011;27402;47.650;-2.092;2022-07-04T13:06:53;1.63;;;0.68;;
41715;SDS011;27402;47.650;-2.092;2022-07-04T13:09:20;2.92;;;0.73;;
41715;SDS011;27402;47.650;-2.092;2022-07-04T13:11:46;1.30;;;0.60;;
41715;SDS011;27402;47.650;-2.092;2022-07-04T13:14:30;4.18;;;0.47;;
41715;SDS011;27402;47.650;-2.092;2022-07-04T13:16:56;1.77;;;0.40;;
41715;SDS011;27402;47.650;-2.092;2022-07-04T13:19:22;1.17;;;0.40;;
41715;SDS011;27402;47.650;-2.092;2022-07-04T13:21:48;0.85;;;0.30;;
41715;SDS011;27402;47.650;-2.092;2022-07-04T13:24:15;1.10;;;0.70;;
41715;SDS011;27402;47.650;-2.092;2022-07-04T13:26:41;3.25;;;0.60;;
41715;SDS011;27402;47.650;-2.092;2022-07-04T13:29:07;1.73;;;0.40;;
41715;SDS011;27402;47.650;-2.092;2022-07-04T13:31:33;1.17;;;0.47;;
41715;SDS011;27402;47.650;-2.092;2022-07-04T13:33:59;3.42;;;0.55;;
41715;SDS011;27402;47.650;-2.092;2022-07-04T13:36:26;1.60;;;0.40;;
41715;SDS011;27402;47.650;-2.092;2022-07-04T13:38:52;0.82;;;0.40;;
41715;SDS011;27402;47.650;-2.092;2022-07-04T13:41:18;0.57;;;0.50;;
41715;SDS011;27402;47.650;-2.092;2022-07-04T13:43:44;1.23;;;0.50;;
41715;SDS011;27402;47.650;-2.092;2022-07-04T13:46:10;2.15;;;0.43;;
41715;SDS011;27402;47.650;-2.092;2022-07-04T13:48:36;3.38;;;0.88;;
41715;SDS011;27402;47.650;-2.092;2022-07-04T13:51:02;2.97;;;0.63;;
41715;SDS011;27402;47.650;-2.092;2022-07-04T13:53:28;1.23;;;0.40;;
41715;SDS011;27402;47.650;-2.092;2022-07-04T13:55:56;1.02;;;0.38;;
41715;SDS011;27402;47.650;-2.092;2022-07-04T13:58:22;1.00;;;0.50;;
41715;SDS011;27402;47.650;-2.092;2022-07-04T14:00:48;2.10;;;1.00;;
41715;SDS011;27402;47.650;-2.092;2022-07-04T14:03:14;1.10;;;0.50;;
41715;SDS011;27402;47.650;-2.092;2022-07-04T14:05:41;1.02;;;0.43;;
41715;SDS011;27402;47.650;-2.092;2022-07-04T14:08:07;1.65;;;0.50;;
41715;SDS011;27402;47.650;-2.092;2022-07-04T14:10:33;3.38;;;0.50;;
41715;SDS011;27402;47.650;-2.092;2022-07-04T14:12:59;0.57;;;0.40;;
41715;SDS011;27402;47.650;-2.092;2022-07-04T14:15:25;0.20;;;0.20;;
41715;SDS011;27402;47.650;-2.092;2022-07-04T14:17:51;1.55;;;0.30;;
41715;SDS011;27402;47.650;-2.092;2022-07-04T14:20:18;0.93;;;0.63;;
41715;SDS011;27402;47.650;-2.092;2022-07-04T14:22:44;0.85;;;0.30;;
41715;SDS011;27402;47.650;-2.092;2022-07-04T14:25:10;1.00;;;0.40;;
41715;SDS011;27402;47.650;-2.092;2022-07-04T14:27:36;1.08;;;0.30;;
41715;SDS011;27402;47.650;-2.092;2022-07-04T14:30:02;1.52;;;0.30;;
41715;SDS011;27402;47.650;-2.092;2022-07-04T14:32:29;0.95;;;0.30;;
41715;SDS011;27402;47.650;-2.092;2022-07-04T14:34:55;0.52;;;0.20;;
41715;SDS011;27402;47.650;-2.092;2022-07-04T14:37:21;0.55;;;0.30;;
41715;SDS011;27402;47.650;-2.092;2022-07-04T14:39:48;3.40;;;0.38;;
41715;SDS011;27402;47.650;-2.092;2022-07-04T14:42:14;0.63;;;0.45;;
41715;SDS011;27402;47.650;-2.092;2022-07-04T14:44:41;0.93;;;0.40;;
41715;SDS011;27402;47.650;-2.092;2022-07-04T14:47:07;1.75;;;0.40;;
41715;SDS011;27402;47.650;-2.092;2022-07-04T14:49:33;1.02;;;0.40;;
41715;SDS011;27402;47.650;-2.092;2022-07-04T14:52:00;1.33;;;0.45;;
41715;SDS011;27402;47.650;-2.092;2022-07-04T14:54:26;0.60;;;0.40;;
41715;SDS011;27402;47.650;-2.092;2022-07-04T14:56:52;1.02;;;0.22;;